Cape Girardeau Regional Airport
KCGI : now visible

Airfield :











YOU CAN JOIN US ON...

 
LOGIN :

Register | Disclaimer

   EN    FR    IT 

 









Legend :    VFR   Marginal VFR   IFR   Intensive IFR   Very Intensive IFR
Visi :
Ceiling :
>= 8 km
>= 3000ft
5 to 8 km
1000 to 3000 ft
1500m to 5 km
500 to 1000 ft
800 to 1500m
200 to 500 ft
< 800m
< 200 ft
Symbols :   Thunderstorms  Fog  Heavy snow  Heavy precipitations  Wind > 20 kt






- Airport Elevation : 342 ft
- IATA code : CGI


KCGI - Cape Girardeau Regional

CURRENT METAR :
  • 291753Z 01010KT 7SM OVC007 03/02 A3017 RMK AO2 SLP217 T00280017 10089 20028 50012

EXPIRED METARs :
  • 291653Z 36009KT 6SM BR OVC006 03/02 A3019 RMK AO2 SLP224 T00330022
  • 291636Z 01011KT 4SM BR OVC005 03/02 A3019 RMK AO2 T00330022
  • 291616Z 36011KT 3SM BR OVC004 03/03 A3018 RMK AO2 T00330028
  • 291553Z 35013KT 2 1/2SM BR OVC004 03/03 A3017 RMK AO2 SLP218 T00330028

TAF KCGI
Valid from the 29 at 18:00 until the 30 at 18:00 UTC


291720Z 2918/3018 36011KT P6SM OVC009
FM292000 36010KT P6SM OVC013
FM300500 36010KT P6SM -DZ OVC011
FM300900 35012KT 6SM -FZDZ BR OVC010
FM301500 35014KT P6SM OVC015
KZME FIR / North America



MET'MAP, your aeronautical weather chart ! - Copyright ORBIFLY December 2007 - Disclaimer

ORBIFLY MET'MAP TEAM :

Programming & Development : Alexandra Zaïnal
Original concept : Baudouin d'Aumeries
Technical & hardware support : Manuel Goepfert
Assistance : Marc-Olivier Méhu




SOURCES & CREDITS :

   NOAA       Earth
Advisory